sensor_id;sensor_type;location;lat;lon;timestamp;pressure;altitude;pressure_sealevel;temperature;humidity
16580;BME280;8402;51.466;6.806;2022-12-29T00:00:59;99983.66;;;11.64;100.00
16580;BME280;8402;51.466;6.806;2022-12-29T00:03:28;99964.34;;;11.66;100.00
16580;BME280;8402;51.466;6.806;2022-12-29T00:05:57;99969.44;;;11.67;100.00
16580;BME280;8402;51.466;6.806;2022-12-29T00:08:25;99964.66;;;11.64;100.00
16580;BME280;8402;51.466;6.806;2022-12-29T00:11:06;99954.91;;;11.63;100.00
16580;BME280;8402;51.466;6.806;2022-12-29T00:13:35;99956.28;;;11.57;100.00
16580;BME280;8402;51.466;6.806;2022-12-29T00:16:20;99953.56;;;11.57;100.00
16580;BME280;8402;51.466;6.806;2022-12-29T00:18:49;99954.69;;;11.56;100.00
16580;BME280;8402;51.466;6.806;2022-12-29T00:21:20;99949.25;;;11.56;100.00
16580;BME280;8402;51.466;6.806;2022-12-29T00:24:09;99946.88;;;11.54;100.00
16580;BME280;8402;51.466;6.806;2022-12-29T00:27:09;99943.28;;;11.50;100.00
16580;BME280;8402;51.466;6.806;2022-12-29T00:29:54;99927.78;;;11.51;100.00
16580;BME280;8402;51.466;6.806;2022-12-29T00:32:39;99929.34;;;11.52;100.00
16580;BME280;8402;51.466;6.806;2022-12-29T00:35:27;99932.06;;;11.52;100.00
16580;BME280;8402;51.466;6.806;2022-12-29T00:38:00;99918.94;;;11.54;100.00
16580;BME280;8402;51.466;6.806;2022-12-29T00:40:46;99915.06;;;11.55;100.00
16580;BME280;8402;51.466;6.806;2022-12-29T00:43:32;99912.81;;;11.57;100.00
16580;BME280;8402;51.466;6.806;2022-12-29T00:46:18;99911.34;;;11.60;100.00
16580;BME280;8402;51.466;6.806;2022-12-29T00:48:46;99918.00;;;11.62;100.00
16580;BME280;8402;51.466;6.806;2022-12-29T00:51:31;99908.41;;;11.65;100.00
16580;BME280;8402;51.466;6.806;2022-12-29T00:54:00;99907.59;;;11.64;100.00
16580;BME280;8402;51.466;6.806;2022-12-29T00:56:28;99908.28;;;11.61;100.00
16580;BME280;8402;51.466;6.806;2022-12-29T00:58:59;99907.06;;;11.58;100.00
16580;BME280;8402;51.466;6.806;2022-12-29T01:01:28;99899.69;;;11.59;100.00
16580;BME280;8402;51.466;6.806;2022-12-29T01:03:56;99905.91;;;11.60;100.00
16580;BME280;8402;51.466;6.806;2022-12-29T01:06:30;99896.50;;;11.57;100.00
16580;BME280;8402;51.466;6.806;2022-12-29T01:08:58;99889.16;;;11.57;100.00
16580;BME280;8402;51.466;6.806;2022-12-29T01:11:45;99897.31;;;11.57;100.00
16580;BME280;8402;51.466;6.806;2022-12-29T01:14:13;99890.41;;;11.60;100.00
16580;BME280;8402;51.466;6.806;2022-12-29T01:16:43;99886.53;;;11.61;100.00
16580;BME280;8402;51.466;6.806;2022-12-29T01:19:11;99884.19;;;11.60;100.00
16580;BME280;8402;51.466;6.806;2022-12-29T01:21:39;99892.41;;;11.63;100.00
16580;BME280;8402;51.466;6.806;2022-12-29T01:24:07;99885.97;;;11.68;100.00
16580;BME280;8402;51.466;6.806;2022-12-29T01:26:35;99891.50;;;11.71;100.00
16580;BME280;8402;51.466;6.806;2022-12-29T01:29:04;99883.81;;;11.73;100.00
16580;BME280;8402;51.466;6.806;2022-12-29T01:31:32;99885.50;;;11.78;100.00
16580;BME280;8402;51.466;6.806;2022-12-29T01:34:01;99891.09;;;11.81;100.00
16580;BME280;8402;51.466;6.806;2022-12-29T01:36:29;99881.91;;;11.86;100.00
16580;BME280;8402;51.466;6.806;2022-12-29T01:38:57;99874.19;;;11.88;100.00
16580;BME280;8402;51.466;6.806;2022-12-29T01:41:25;99885.16;;;11.92;100.00
16580;BME280;8402;51.466;6.806;2022-12-29T01:43:55;99880.19;;;11.94;100.00
16580;BME280;8402;51.466;6.806;2022-12-29T01:46:28;99875.88;;;11.93;100.00
16580;BME280;8402;51.466;6.806;2022-12-29T01:49:03;99871.25;;;11.93;100.00
16580;BME280;8402;51.466;6.806;2022-12-29T01:51:35;99862.28;;;11.93;100.00
16580;BME280;8402;51.466;6.806;2022-12-29T01:54:07;99858.09;;;11.95;100.00
16580;BME280;8402;51.466;6.806;2022-12-29T01:56:38;99863.53;;;11.95;100.00
16580;BME280;8402;51.466;6.806;2022-12-29T01:59:10;99865.91;;;11.97;100.00
16580;BME280;8402;51.466;6.806;2022-12-29T02:01:41;99860.47;;;11.97;100.00
16580;BME280;8402;51.466;6.806;2022-12-29T02:04:11;99857.31;;;11.95;100.00
16580;BME280;8402;51.466;6.806;2022-12-29T02:06:45;99868.97;;;11.95;100.00
16580;BME280;8402;51.466;6.806;2022-12-29T02:09:13;99861.38;;;12.01;100.00
16580;BME280;8402;51.466;6.806;2022-12-29T02:11:43;99879.25;;;12.02;100.00
16580;BME280;8402;51.466;6.806;2022-12-29T02:14:13;99868.38;;;12.02;100.00
16580;BME280;8402;51.466;6.806;2022-12-29T02:16:59;99872.91;;;11.98;100.00
16580;BME280;8402;51.466;6.806;2022-12-29T02:19:50;99861.81;;;12.03;100.00
16580;BME280;8402;51.466;6.806;2022-12-29T02:22:27;99866.09;;;12.04;100.00
16580;BME280;8402;51.466;6.806;2022-12-29T02:25:29;99857.25;;;12.07;100.00
16580;BME280;8402;51.466;6.806;2022-12-29T02:28:27;99861.56;;;12.08;100.00
16580;BME280;8402;51.466;6.806;2022-12-29T02:31:08;99855.88;;;12.13;100.00
16580;BME280;8402;51.466;6.806;2022-12-29T02:33:50;99847.97;;;12.08;100.00
16580;BME280;8402;51.466;6.806;2022-12-29T02:36:26;99848.41;;;12.10;100.00
16580;BME280;8402;51.466;6.806;2022-12-29T02:39:04;99847.97;;;12.08;100.00
16580;BME280;8402;51.466;6.806;2022-12-29T02:41:34;99844.13;;;12.09;100.00
16580;BME280;8402;51.466;6.806;2022-12-29T02:44:12;99842.97;;;12.10;100.00
16580;BME280;8402;51.466;6.806;2022-12-29T02:46:47;99842.97;;;12.10;100.00
16580;BME280;8402;51.466;6.806;2022-12-29T02:49:22;99837.53;;;12.10;100.00
16580;BME280;8402;51.466;6.806;2022-12-29T02:51:58;99841.41;;;12.09;100.00
16580;BME280;8402;51.466;6.806;2022-12-29T02:54:27;99841.41;;;12.09;100.00
16580;BME280;8402;51.466;6.806;2022-12-29T02:57:10;99830.53;;;12.09;100.00
16580;BME280;8402;51.466;6.806;2022-12-29T02:59:40;99830.88;;;12.07;100.00
16580;BME280;8402;51.466;6.806;2022-12-29T03:02:24;99837.41;;;12.06;100.00
16580;BME280;8402;51.466;6.806;2022-12-29T03:05:17;99825.09;;;12.09;100.00
16580;BME280;8402;51.466;6.806;2022-12-29T03:07:59;99834.03;;;12.09;100.00
16580;BME280;8402;51.466;6.806;2022-12-29T03:10:38;99831.75;;;12.11;100.00
16580;BME280;8402;51.466;6.806;2022-12-29T03:13:16;99822.22;;;12.18;100.00
16580;BME280;8402;51.466;6.806;2022-12-29T03:16:09;99822.28;;;12.21;100.00
16580;BME280;8402;51.466;6.806;2022-12-29T03:18:50;99823.91;;;12.22;100.00
16580;BME280;8402;51.466;6.806;2022-12-29T03:21:26;99816.84;;;12.21;100.00
16580;BME280;8402;51.466;6.806;2022-12-29T03:24:11;99809.16;;;12.23;100.00
16580;BME280;8402;51.466;6.806;2022-12-29T03:26:41;99811.88;;;12.23;100.00
16580;BME280;8402;51.466;6.806;2022-12-29T03:29:11;99801.34;;;12.22;100.00
16580;BME280;8402;51.466;6.806;2022-12-29T03:31:41;99812.22;;;12.22;100.00
16580;BME280;8402;51.466;6.806;2022-12-29T03:34:11;99812.31;;;12.25;100.00
16580;BME280;8402;51.466;6.806;2022-12-29T03:36:47;99802.13;;;12.22;100.00
16580;BME280;8402;51.466;6.806;2022-12-29T03:39:17;99796.69;;;12.22;100.00
16580;BME280;8402;51.466;6.806;2022-12-29T03:41:50;99786.16;;;12.21;100.00
16580;BME280;8402;51.466;6.806;2022-12-29T03:44:19;99797.81;;;12.21;100.00
16580;BME280;8402;51.466;6.806;2022-12-29T03:46:47;99789.66;;;12.21;100.00
16580;BME280;8402;51.466;6.806;2022-12-29T03:49:16;99794.41;;;12.24;100.00
16580;BME280;8402;51.466;6.806;2022-12-29T03:51:43;99788.63;;;12.26;100.00
16580;BME280;8402;51.466;6.806;2022-12-29T03:54:11;99781.25;;;12.26;100.00
16580;BME280;8402;51.466;6.806;2022-12-29T03:56:39;99775.81;;;12.26;100.00
16580;BME280;8402;51.466;6.806;2022-12-29T03:59:07;99771.94;;;12.27;100.00
16580;BME280;8402;51.466;6.806;2022-12-29T04:01:36;99757.22;;;12.28;100.00
16580;BME280;8402;51.466;6.806;2022-12-29T04:04:04;99766.97;;;12.29;100.00
16580;BME280;8402;51.466;6.806;2022-12-29T04:06:33;99769.69;;;12.29;100.00
16580;BME280;8402;51.466;6.806;2022-12-29T04:09:01;99754.94;;;12.30;100.00
16580;BME280;8402;51.466;6.806;2022-12-29T04:11:29;99758.03;;;12.29;100.00
16580;BME280;8402;51.466;6.806;2022-12-29T04:14:00;99755.31;;;12.29;100.00
16580;BME280;8402;51.466;6.806;2022-12-29T04:16:27;99742.50;;;12.29;100.00
16580;BME280;8402;51.466;6.806;2022-12-29T04:18:55;99736.16;;;12.25;100.00
16580;BME280;8402;51.466;6.806;2022-12-29T04:21:23;99743.16;;;12.26;100.00
16580;BME280;8402;51.466;6.806;2022-12-29T04:23:52;99752.59;;;12.29;100.00
16580;BME280;8402;51.466;6.806;2022-12-29T04:26:20;99747.56;;;12.31;100.00
16580;BME280;8402;51.466;6.806;2022-12-29T04:28:48;99747.56;;;12.31;100.00
16580;BME280;8402;51.466;6.806;2022-12-29T04:31:16;99730.09;;;12.32;100.00
16580;BME280;8402;51.466;6.806;2022-12-29T04:33:44;99740.22;;;12.31;100.00
16580;BME280;8402;51.466;6.806;2022-12-29T04:36:12;99736.34;;;12.32;100.00
16580;BME280;8402;51.466;6.806;2022-12-29T04:38:40;99743.34;;;12.33;100.00
16580;BME280;8402;51.466;6.806;2022-12-29T04:41:09;99736.34;;;12.32;100.00
16580;BME280;8402;51.466;6.806;2022-12-29T04:43:36;99734.06;;;12.34;100.00
16580;BME280;8402;51.466;6.806;2022-12-29T04:46:05;99739.94;;;12.36;100.00
16580;BME280;8402;51.466;6.806;2022-12-29T04:48:33;99729.75;;;12.33;100.00
16580;BME280;8402;51.466;6.806;2022-12-29T04:51:00;99750.56;;;12.42;100.00
16580;BME280;8402;51.466;6.806;2022-12-29T04:53:28;99749.09;;;12.44;99.25
16580;BME280;8402;51.466;6.806;2022-12-29T04:55:56;99745.56;;;12.44;99.20
16580;BME280;8402;51.466;6.806;2022-12-29T04:58:25;99753.03;;;12.47;98.73
16580;BME280;8402;51.466;6.806;2022-12-29T05:00:53;99753.03;;;12.47;98.54
16580;BME280;8402;51.466;6.806;2022-12-29T05:03:21;99766.28;;;12.48;99.20
16580;BME280;8402;51.466;6.806;2022-12-29T05:05:49;99772.84;;;12.47;98.89
16580;BME280;8402;51.466;6.806;2022-12-29T05:08:17;99765.47;;;12.48;98.69
16580;BME280;8402;51.466;6.806;2022-12-29T05:10:53;99765.47;;;12.48;98.57
16580;BME280;8402;51.466;6.806;2022-12-29T05:13:20;99774.00;;;12.46;98.11
16580;BME280;8402;51.466;6.806;2022-12-29T05:15:51;99789.53;;;12.46;97.61
16580;BME280;8402;51.466;6.806;2022-12-29T05:18:19;99793.47;;;12.48;96.54
16580;BME280;8402;51.466;6.806;2022-12-29T05:20:47;99787.97;;;12.45;96.85
16580;BME280;8402;51.466;6.806;2022-12-29T05:23:15;99816.03;;;12.49;96.66
16580;BME280;8402;51.466;6.806;2022-12-29T05:25:44;99823.75;;;12.47;96.98
16580;BME280;8402;51.466;6.806;2022-12-29T05:28:13;99807.88;;;12.49;96.64
16580;BME280;8402;51.466;6.806;2022-12-29T05:30:41;99802.44;;;12.49;96.00
16580;BME280;8402;51.466;6.806;2022-12-29T05:33:10;99807.88;;;12.49;95.41
16580;BME280;8402;51.466;6.806;2022-12-29T05:35:38;99811.06;;;12.51;95.83
16580;BME280;8402;51.466;6.806;2022-12-29T05:38:06;99805.94;;;12.49;95.33
16580;BME280;8402;51.466;6.806;2022-12-29T05:40:34;99815.78;;;12.54;94.71
16580;BME280;8402;51.466;6.806;2022-12-29T05:43:02;99811.50;;;12.53;94.21
16580;BME280;8402;51.466;6.806;2022-12-29T05:45:30;99823.94;;;12.54;93.27
16580;BME280;8402;51.466;6.806;2022-12-29T05:47:57;99832.47;;;12.52;92.78
16580;BME280;8402;51.466;6.806;2022-12-29T05:50:27;99827.63;;;12.46;91.14
16580;BME280;8402;51.466;6.806;2022-12-29T05:52:54;99834.56;;;12.43;91.93
16580;BME280;8402;51.466;6.806;2022-12-29T05:55:22;99844.44;;;12.35;92.48
16580;BME280;8402;51.466;6.806;2022-12-29T05:57:50;99848.31;;;12.34;92.56
16580;BME280;8402;51.466;6.806;2022-12-29T06:00:18;99846.66;;;12.30;92.79
16580;BME280;8402;51.466;6.806;2022-12-29T06:02:46;99842.47;;;12.20;93.60
16580;BME280;8402;51.466;6.806;2022-12-29T06:05:14;99858.91;;;12.24;93.68
16580;BME280;8402;51.466;6.806;2022-12-29T06:07:44;99861.19;;;12.22;94.14
16580;BME280;8402;51.466;6.806;2022-12-29T06:10:12;99859.50;;;12.17;94.76
16580;BME280;8402;51.466;6.806;2022-12-29T06:12:40;99870.03;;;12.19;94.72
16580;BME280;8402;51.466;6.806;2022-12-29T06:15:08;99864.94;;;12.17;95.54
16580;BME280;8402;51.466;6.806;2022-12-29T06:17:36;99872.66;;;12.15;95.78
16580;BME280;8402;51.466;6.806;2022-12-29T06:20:05;99874.91;;;12.13;95.96
16580;BME280;8402;51.466;6.806;2022-12-29T06:22:33;99879.13;;;12.10;96.26
16580;BME280;8402;51.466;6.806;2022-12-29T06:25:03;99880.59;;;12.08;96.52
16580;BME280;8402;51.466;6.806;2022-12-29T06:27:32;99887.16;;;12.07;96.73
16580;BME280;8402;51.466;6.806;2022-12-29T06:30:00;99894.53;;;12.06;97.16
16580;BME280;8402;51.466;6.806;2022-12-29T06:32:28;99900.66;;;12.03;97.68
16580;BME280;8402;51.466;6.806;2022-12-29T06:34:56;99891.81;;;12.06;98.07
16580;BME280;8402;51.466;6.806;2022-12-29T06:37:24;99896.00;;;12.04;98.28
16580;BME280;8402;51.466;6.806;2022-12-29T06:39:52;99904.16;;;12.04;98.03
16580;BME280;8402;51.466;6.806;2022-12-29T06:42:21;99898.72;;;12.04;97.75
16580;BME280;8402;51.466;6.806;2022-12-29T06:44:49;99892.59;;;12.07;97.60
16580;BME280;8402;51.466;6.806;2022-12-29T06:47:17;99892.59;;;12.07;97.49
16580;BME280;8402;51.466;6.806;2022-12-29T06:49:45;99901.88;;;12.06;97.44
16580;BME280;8402;51.466;6.806;2022-12-29T06:52:13;99892.50;;;12.03;97.90
16580;BME280;8402;51.466;6.806;2022-12-29T06:54:41;99910.16;;;12.09;97.78
16580;BME280;8402;51.466;6.806;2022-12-29T06:57:09;99911.41;;;12.12;97.36
16580;BME280;8402;51.466;6.806;2022-12-29T06:59:38;99899.84;;;12.15;97.77
16580;BME280;8402;51.466;6.806;2022-12-29T07:02:06;99901.06;;;12.18;97.57
16580;BME280;8402;51.466;6.806;2022-12-29T07:04:34;99895.28;;;12.19;96.98
16580;BME280;8402;51.466;6.806;2022-12-29T07:07:02;99910.94;;;12.22;96.64
16580;BME280;8402;51.466;6.806;2022-12-29T07:09:30;99893.81;;;12.22;96.49
16580;BME280;8402;51.466;6.806;2022-12-29T07:11:59;99904.78;;;12.25;96.42
16580;BME280;8402;51.466;6.806;2022-12-29T07:14:26;99912.59;;;12.27;96.52
16580;BME280;8402;51.466;6.806;2022-12-29T07:16:56;99919.28;;;12.29;96.49
16580;BME280;8402;51.466;6.806;2022-12-29T07:19:24;99904.56;;;12.30;95.64
16580;BME280;8402;51.466;6.806;2022-12-29T07:21:54;99915.88;;;12.32;96.03
16580;BME280;8402;51.466;6.806;2022-12-29T07:24:21;99922.44;;;12.31;95.53
16580;BME280;8402;51.466;6.806;2022-12-29T07:26:49;99928.34;;;12.33;95.90
16580;BME280;8402;51.466;6.806;2022-12-29T07:29:17;99928.44;;;12.37;95.60
16580;BME280;8402;51.466;6.806;2022-12-29T07:31:45;99932.41;;;12.39;95.96
16580;BME280;8402;51.466;6.806;2022-12-29T07:34:14;99922.22;;;12.36;95.32
16580;BME280;8402;51.466;6.806;2022-12-29T07:36:42;99926.75;;;12.32;95.62
16580;BME280;8402;51.466;6.806;2022-12-29T07:39:10;99931.63;;;12.27;94.84
16580;BME280;8402;51.466;6.806;2022-12-29T07:41:38;99946.81;;;12.28;94.73
16580;BME280;8402;51.466;6.806;2022-12-29T07:44:08;99942.66;;;12.18;93.88
16580;BME280;8402;51.466;6.806;2022-12-29T07:46:36;99936.53;;;12.21;94.30
16580;BME280;8402;51.466;6.806;2022-12-29T07:49:24;99948.53;;;12.20;93.46
16580;BME280;8402;51.466;6.806;2022-12-29T07:51:52;99954.25;;;12.15;93.55
16580;BME280;8402;51.466;6.806;2022-12-29T07:54:20;99959.69;;;12.15;93.20
16580;BME280;8402;51.466;6.806;2022-12-29T07:56:49;99967.38;;;12.13;92.72
16580;BME280;8402;51.466;6.806;2022-12-29T07:59:17;99963.06;;;12.12;93.11
16580;BME280;8402;51.466;6.806;2022-12-29T08:01:45;99971.44;;;12.07;92.65
16580;BME280;8402;51.466;6.806;2022-12-29T08:04:14;99967.16;;;12.06;91.87
16580;BME280;8402;51.466;6.806;2022-12-29T08:06:43;99979.50;;;12.03;92.28
16580;BME280;8402;51.466;6.806;2022-12-29T08:09:12;99971.00;;;12.05;92.14
16580;BME280;8402;51.466;6.806;2022-12-29T08:11:47;99969.44;;;12.04;92.40
16580;BME280;8402;51.466;6.806;2022-12-29T08:14:15;99982.94;;;12.00;91.40
16580;BME280;8402;51.466;6.806;2022-12-29T08:16:43;99984.03;;;11.99;91.28
16580;BME280;8402;51.466;6.806;2022-12-29T08:19:11;99985.53;;;11.97;91.07
16580;BME280;8402;51.466;6.806;2022-12-29T08:21:39;99980.09;;;11.97;91.67
16580;BME280;8402;51.466;6.806;2022-12-29T08:24:09;99988.69;;;11.99;91.81
16580;BME280;8402;51.466;6.806;2022-12-29T08:26:38;99997.41;;;11.92;91.74
16580;BME280;8402;51.466;6.806;2022-12-29T08:29:06;99999.47;;;11.95;91.72
16580;BME280;8402;51.466;6.806;2022-12-29T08:31:34;99995.59;;;11.96;91.09
16580;BME280;8402;51.466;6.806;2022-12-29T08:34:02;99994.03;;;11.95;91.40
16580;BME280;8402;51.466;6.806;2022-12-29T08:36:30;99997.63;;;11.99;91.29
16580;BME280;8402;51.466;6.806;2022-12-29T08:38:58;100009.28;;;12.00;91.11
16580;BME280;8402;51.466;6.806;2022-12-29T08:41:28;100007.06;;;12.02;91.44
16580;BME280;8402;51.466;6.806;2022-12-29T08:43:56;100005.78;;;11.99;91.68
16580;BME280;8402;51.466;6.806;2022-12-29T08:46:24;100002.19;;;11.95;91.44
16580;BME280;8402;51.466;6.806;2022-12-29T08:48:52;99997.97;;;11.98;91.18
16580;BME280;8402;51.466;6.806;2022-12-29T08:51:20;100017.34;;;11.96;91.07
16580;BME280;8402;51.466;6.806;2022-12-29T08:53:50;100017.44;;;12.00;91.59
16580;BME280;8402;51.466;6.806;2022-12-29T08:56:18;100010.44;;;11.99;91.58
16580;BME280;8402;51.466;6.806;2022-12-29T08:58:48;100012.94;;;12.04;91.60
16580;BME280;8402;51.466;6.806;2022-12-29T09:01:15;100018.03;;;12.05;91.26
16580;BME280;8402;51.466;6.806;2022-12-29T09:03:44;100016.56;;;11.96;91.27
16580;BME280;8402;51.466;6.806;2022-12-29T09:06:32;100026.88;;;11.90;91.21
16580;BME280;8402;51.466;6.806;2022-12-29T09:09:05;100032.88;;;11.96;90.81
16580;BME280;8402;51.466;6.806;2022-12-29T09:11:33;100030.16;;;11.96;90.50
16580;BME280;8402;51.466;6.806;2022-12-29T09:14:03;100024.38;;;11.97;90.58
16580;BME280;8402;51.466;6.806;2022-12-29T09:16:31;100039.09;;;11.96;90.99
16580;BME280;8402;51.466;6.806;2022-12-29T09:18:59;100027.22;;;12.01;91.37
16580;BME280;8402;51.466;6.806;2022-12-29T09:21:27;100020.66;;;12.02;90.83
16580;BME280;8402;51.466;6.806;2022-12-29T09:23:55;100034.69;;;12.04;90.92
16580;BME280;8402;51.466;6.806;2022-12-29T09:26:23;100043.28;;;12.06;91.20
16580;BME280;8402;51.466;6.806;2022-12-29T09:28:51;100041.03;;;12.08;91.09
16580;BME280;8402;51.466;6.806;2022-12-29T09:31:20;100044.19;;;12.10;90.82
16580;BME280;8402;51.466;6.806;2022-12-29T09:33:48;100045.78;;;12.11;90.75
16580;BME280;8402;51.466;6.806;2022-12-29T09:36:16;100040.34;;;12.11;90.58
16580;BME280;8402;51.466;6.806;2022-12-29T09:38:44;100041.47;;;12.10;90.13
16580;BME280;8402;51.466;6.806;2022-12-29T09:41:17;100049.75;;;12.13;90.14
16580;BME280;8402;51.466;6.806;2022-12-29T09:44:12;100042.72;;;12.12;90.24
16580;BME280;8402;51.466;6.806;2022-12-29T09:46:48;100049.16;;;12.20;90.42
16580;BME280;8402;51.466;6.806;2022-12-29T09:49:23;100044.66;;;12.24;90.63
16580;BME280;8402;51.466;6.806;2022-12-29T09:51:54;100038.50;;;12.27;90.50
16580;BME280;8402;51.466;6.806;2022-12-29T09:54:33;100039.22;;;12.24;88.88
16580;BME280;8402;51.466;6.806;2022-12-29T09:57:05;100056.31;;;12.25;88.59
16580;BME280;8402;51.466;6.806;2022-12-29T09:59:40;100053.72;;;12.16;88.34
16580;BME280;8402;51.466;6.806;2022-12-29T10:02:22;100044.44;;;12.17;87.98
16580;BME280;8402;51.466;6.806;2022-12-29T10:04:51;100053.03;;;12.19;88.63
16580;BME280;8402;51.466;6.806;2022-12-29T10:07:28;100057.56;;;12.15;87.93
16580;BME280;8402;51.466;6.806;2022-12-29T10:10:06;100059.16;;;12.16;88.24
16580;BME280;8402;51.466;6.806;2022-12-29T10:12:51;100061.19;;;12.07;87.47
16580;BME280;8402;51.466;6.806;2022-12-29T10:15:40;100046.34;;;12.04;88.47
16580;BME280;8402;51.466;6.806;2022-12-29T10:18:25;100049.28;;;12.11;88.24
16580;BME280;8402;51.466;6.806;2022-12-29T10:21:07;100049.41;;;12.15;87.96
16580;BME280;8402;51.466;6.806;2022-12-29T10:23:40;100062.22;;;12.15;86.72
16580;BME280;8402;51.466;6.806;2022-12-29T10:26:13;100071.50;;;12.13;86.67
16580;BME280;8402;51.466;6.806;2022-12-29T10:28:43;100061.41;;;12.14;87.10
16580;BME280;8402;51.466;6.806;2022-12-29T10:31:16;100073.41;;;12.13;86.91
16580;BME280;8402;51.466;6.806;2022-12-29T10:33:49;100070.69;;;12.13;86.71
16580;BME280;8402;51.466;6.806;2022-12-29T10:36:25;100062.88;;;12.11;86.62
16580;BME280;8402;51.466;6.806;2022-12-29T10:39:04;100068.53;;;12.06;86.08
16580;BME280;8402;51.466;6.806;2022-12-29T10:41:38;100066.75;;;12.10;86.01
16580;BME280;8402;51.466;6.806;2022-12-29T10:44:10;100075.25;;;12.09;85.49
16580;BME280;8402;51.466;6.806;2022-12-29T10:46:41;100072.75;;;12.04;86.09
16580;BME280;8402;51.466;6.806;2022-12-29T10:49:16;100082.94;;;12.07;84.93
16580;BME280;8402;51.466;6.806;2022-12-29T10:51:48;100095.44;;;12.08;85.68
16580;BME280;8402;51.466;6.806;2022-12-29T10:54:21;100093.81;;;12.07;85.58
16580;BME280;8402;51.466;6.806;2022-12-29T10:56:59;100086.78;;;12.06;85.17
16580;BME280;8402;51.466;6.806;2022-12-29T10:59:30;100095.19;;;12.01;85.05
16580;BME280;8402;51.466;6.806;2022-12-29T11:02:04;100091.78;;;12.04;85.11
16580;BME280;8402;51.466;6.806;2022-12-29T11:04:51;100092.22;;;12.06;84.64
16580;BME280;8402;51.466;6.806;2022-12-29T11:07:23;100104.03;;;12.10;85.34
16580;BME280;8402;51.466;6.806;2022-12-29T11:09:53;100100.63;;;12.13;85.48
16580;BME280;8402;51.466;6.806;2022-12-29T11:12:24;100101.75;;;12.12;84.40
16580;BME280;8402;51.466;6.806;2022-12-29T11:15:11;100109.81;;;12.08;84.38
16580;BME280;8402;51.466;6.806;2022-12-29T11:17:44;100107.19;;;12.12;84.91
16580;BME280;8402;51.466;6.806;2022-12-29T11:20:35;100121.81;;;12.07;83.75
16580;BME280;8402;51.466;6.806;2022-12-29T11:23:26;100125.34;;;12.08;83.83
16580;BME280;8402;51.466;6.806;2022-12-29T11:26:23;100122.63;;;12.08;84.38
16580;BME280;8402;51.466;6.806;2022-12-29T11:29:09;100119.66;;;12.13;84.01
16580;BME280;8402;51.466;6.806;2022-12-29T11:31:43;100129.41;;;12.14;83.94
16580;BME280;8402;51.466;6.806;2022-12-29T11:34:17;100122.16;;;12.18;84.19
16580;BME280;8402;51.466;6.806;2022-12-29T11:36:49;100119.88;;;12.20;83.87
16580;BME280;8402;51.466;6.806;2022-12-29T11:39:28;100133.47;;;12.20;83.70
16580;BME280;8402;51.466;6.806;2022-12-29T11:41:57;100133.16;;;12.22;83.35
16580;BME280;8402;51.466;6.806;2022-12-29T11:44:26;100145.50;;;12.19;83.61
16580;BME280;8402;51.466;6.806;2022-12-29T11:46:55;100142.13;;;12.22;83.57
16580;BME280;8402;51.466;6.806;2022-12-29T11:49:25;100139.72;;;12.21;83.46
16580;BME280;8402;51.466;6.806;2022-12-29T11:51:55;100148.78;;;12.25;83.99
16580;BME280;8402;51.466;6.806;2022-12-29T11:54:25;100145.06;;;12.29;83.94
16580;BME280;8402;51.466;6.806;2022-12-29T11:56:55;100143.47;;;12.28;83.50
16580;BME280;8402;51.466;6.806;2022-12-29T11:59:37;100147.78;;;12.29;83.45
16580;BME280;8402;51.466;6.806;2022-12-29T12:02:26;100152.44;;;12.29;83.29
16580;BME280;8402;51.466;6.806;2022-12-29T12:05:16;100165.94;;;12.37;83.57
16580;BME280;8402;51.466;6.806;2022-12-29T12:07:50;100158.00;;;12.45;83.27
16580;BME280;8402;51.466;6.806;2022-12-29T12:10:23;100165.00;;;12.46;82.43
16580;BME280;8402;51.466;6.806;2022-12-29T12:13:03;100159.56;;;12.46;83.09
16580;BME280;8402;51.466;6.806;2022-12-29T12:15:36;100156.16;;;12.49;83.02
16580;BME280;8402;51.466;6.806;2022-12-29T12:18:17;100167.53;;;12.51;82.85
16580;BME280;8402;51.466;6.806;2022-12-29T12:20:49;100164.44;;;12.52;82.93
16580;BME280;8402;51.466;6.806;2022-12-29T12:23:43;100164.78;;;12.51;82.57
16580;BME280;8402;51.466;6.806;2022-12-29T12:26:13;100176.91;;;12.53;82.86
16580;BME280;8402;51.466;6.806;2022-12-29T12:28:49;100172.16;;;12.50;81.68
16580;BME280;8402;51.466;6.806;2022-12-29T12:31:30;100178.41;;;12.51;82.80
16580;BME280;8402;51.466;6.806;2022-12-29T12:34:03;100182.22;;;12.50;81.96
16580;BME280;8402;51.466;6.806;2022-12-29T12:36:49;100182.22;;;12.50;82.62
16580;BME280;8402;51.466;6.806;2022-12-29T12:39:34;100182.22;;;12.50;81.82
16580;BME280;8402;51.466;6.806;2022-12-29T12:42:21;100187.66;;;12.50;81.63
16580;BME280;8402;51.466;6.806;2022-12-29T12:45:02;100188.16;;;12.52;82.09
16580;BME280;8402;51.466;6.806;2022-12-29T12:47:47;100184.50;;;12.48;81.87
16580;BME280;8402;51.466;6.806;2022-12-29T12:50:43;100188.59;;;12.42;82.10
16580;BME280;8402;51.466;6.806;2022-12-29T12:53:26;100190.50;;;12.41;82.41
16580;BME280;8402;51.466;6.806;2022-12-29T12:59:03;100196.50;;;12.34;82.08
16580;BME280;8402;51.466;6.806;2022-12-29T13:01:44;100197.88;;;12.40;82.56
16580;BME280;8402;51.466;6.806;2022-12-29T13:04:45;100205.81;;;12.33;82.35
16580;BME280;8402;51.466;6.806;2022-12-29T13:07:22;100203.09;;;12.33;81.96
16580;BME280;8402;51.466;6.806;2022-12-29T13:10:05;100209.66;;;12.32;82.11
16580;BME280;8402;51.466;6.806;2022-12-29T13:12:46;100207.41;;;12.34;81.89
16580;BME280;8402;51.466;6.806;2022-12-29T13:15:28;100208.31;;;12.38;82.24
16580;BME280;8402;51.466;6.806;2022-12-29T13:18:07;100206.03;;;12.40;82.59
16580;BME280;8402;51.466;6.806;2022-12-29T13:20:45;100218.28;;;12.34;82.40
16580;BME280;8402;51.466;6.806;2022-12-29T13:23:20;100216.09;;;12.28;82.95
16580;BME280;8402;51.466;6.806;2022-12-29T13:25:55;100219.63;;;12.28;83.28
16580;BME280;8402;51.466;6.806;2022-12-29T13:28:32;100209.56;;;12.29;83.01
16580;BME280;8402;51.466;6.806;2022-12-29T13:31:09;100216.44;;;12.26;83.16
16580;BME280;8402;51.466;6.806;2022-12-29T13:33:47;100213.28;;;12.24;83.36
16580;BME280;8402;51.466;6.806;2022-12-29T13:36:22;100222.69;;;12.27;83.15